createdAt,value
2017-12-15T00:01:56.846Z,80.00
2017-12-15T00:04:25.173Z,80.10
2017-12-15T00:06:52.749Z,80.10
2017-12-15T00:09:20.308Z,80.00
2017-12-15T00:11:47.878Z,80.20
2017-12-15T00:14:15.433Z,80.20
2017-12-15T00:16:42.976Z,80.20
2017-12-15T00:19:10.576Z,80.20
2017-12-15T00:21:38.121Z,80.00
2017-12-15T00:24:05.681Z,80.10
2017-12-15T00:26:33.263Z,80.20
2017-12-15T00:29:01.600Z,80.10
2017-12-15T00:31:29.141Z,80.10
2017-12-15T00:33:56.752Z,80.00
2017-12-15T00:36:24.310Z,79.80
2017-12-15T00:38:51.899Z,80.10
2017-12-15T00:41:19.479Z,80.50
2017-12-15T00:43:47.042Z,79.90
2017-12-15T00:46:14.612Z,79.80
2017-12-15T00:48:42.166Z,79.60
2017-12-15T00:51:09.737Z,79.60
2017-12-15T00:53:37.304Z,79.60
2017-12-15T00:56:04.884Z,79.70
2017-12-15T00:58:32.448Z,80.00
2017-12-15T01:01:00.012Z,80.20
2017-12-15T01:03:27.559Z,80.30
2017-12-15T01:05:55.134Z,80.30
2017-12-15T01:08:23.468Z,80.50
2017-12-15T01:10:51.028Z,80.40
2017-12-15T01:13:18.592Z,80.50
2017-12-15T01:15:46.137Z,80.40
2017-12-15T01:18:13.706Z,80.40
2017-12-15T01:20:42.039Z,80.40
2017-12-15T01:23:10.392Z,80.50
2017-12-15T01:25:37.972Z,80.50
2017-12-15T01:28:06.312Z,80.40
2017-12-15T01:30:33.870Z,80.30
2017-12-15T01:33:02.189Z,80.30
2017-12-15T01:35:30.516Z,80.30
2017-12-15T01:37:58.060Z,80.20
2017-12-15T01:40:25.650Z,80.40
2017-12-15T01:42:53.209Z,80.20
2017-12-15T01:45:20.785Z,80.40
2017-12-15T01:47:48.347Z,80.20
2017-12-15T01:50:15.986Z,80.40
2017-12-15T01:52:45.415Z,81.00
2017-12-15T01:55:12.971Z,80.60
2017-12-15T01:57:40.557Z,80.60
2017-12-15T02:00:08.108Z,80.40
2017-12-15T02:02:36.438Z,80.20
2017-12-15T02:05:03.988Z,80.20
2017-12-15T02:07:31.561Z,80.10
2017-12-15T02:09:59.109Z,80.10
2017-12-15T02:12:26.697Z,79.90
2017-12-15T02:14:54.250Z,80.00
2017-12-15T02:17:21.848Z,79.80
2017-12-15T02:19:50.192Z,79.80
2017-12-15T02:22:17.749Z,79.80
2017-12-15T02:24:45.334Z,79.80
2017-12-15T02:27:13.661Z,79.70
2017-12-15T02:29:41.246Z,79.80
2017-12-15T02:32:08.812Z,79.70
2017-12-15T02:34:36.381Z,79.90
2017-12-15T02:37:03.938Z,79.80
2017-12-15T02:39:31.526Z,80.50
2017-12-15T02:41:59.083Z,79.80
2017-12-15T02:44:27.461Z,80.10
2017-12-15T02:46:55.000Z,80.10
2017-12-15T02:49:22.543Z,80.00
2017-12-15T02:51:50.110Z,79.80
2017-12-15T02:54:17.685Z,80.00
2017-12-15T02:56:46.032Z,79.80
2017-12-15T02:59:13.594Z,79.80
2017-12-15T03:01:41.183Z,79.60
2017-12-15T03:04:09.492Z,80.00
2017-12-15T03:06:37.107Z,80.00
2017-12-15T03:09:04.686Z,79.90
2017-12-15T03:11:33.014Z,79.80
2017-12-15T03:14:00.590Z,79.80
2017-12-15T03:16:28.141Z,79.50
2017-12-15T03:18:55.715Z,79.70
2017-12-15T03:21:23.266Z,79.70
2017-12-15T03:23:50.840Z,79.70
2017-12-15T03:26:18.395Z,79.40
2017-12-15T03:28:46.759Z,79.40
2017-12-15T03:31:14.315Z,79.40
2017-12-15T03:33:41.856Z,79.50
2017-12-15T03:36:09.427Z,79.30
2017-12-15T03:38:36.996Z,79.50
2017-12-15T03:41:04.559Z,79.10
2017-12-15T03:43:32.099Z,78.50
2017-12-15T03:45:59.665Z,78.40
2017-12-15T03:48:27.245Z,78.80
2017-12-15T03:50:54.824Z,78.60
2017-12-15T03:53:22.399Z,78.40
2017-12-15T03:55:50.730Z,78.60
2017-12-15T03:58:18.302Z,78.60
2017-12-15T04:00:45.866Z,78.20
2017-12-15T04:03:13.425Z,78.70
2017-12-15T04:05:40.982Z,77.90
2017-12-15T04:08:09.338Z,78.10
2017-12-15T04:10:36.892Z,77.50
2017-12-15T04:13:04.458Z,77.50
2017-12-15T04:15:32.031Z,77.40
2017-12-15T04:17:59.589Z,77.20
2017-12-15T04:20:27.173Z,77.20
2017-12-15T04:22:54.749Z,77.30
2017-12-15T04:25:23.091Z,77.50
2017-12-15T04:27:50.666Z,78.10
2017-12-15T04:30:18.255Z,77.20
2017-12-15T04:32:45.825Z,77.90
2017-12-15T04:35:13.390Z,77.20
2017-12-15T04:37:40.954Z,77.20
2017-12-15T04:40:08.538Z,77.30
2017-12-15T04:42:36.106Z,77.10
2017-12-15T04:45:04.434Z,76.70
2017-12-15T04:47:32.004Z,76.80
2017-12-15T04:49:59.548Z,76.80
2017-12-15T04:52:27.908Z,76.80
2017-12-15T04:54:55.463Z,76.80
2017-12-15T04:57:23.053Z,76.80
2017-12-15T04:59:50.609Z,76.80
2017-12-15T05:02:18.160Z,76.10
2017-12-15T05:04:46.490Z,75.60
2017-12-15T05:07:14.052Z,75.60
2017-12-15T05:09:41.613Z,75.70
2017-12-15T05:12:09.176Z,75.60
2017-12-15T05:14:36.745Z,75.70
2017-12-15T05:17:04.318Z,75.70
2017-12-15T05:19:31.880Z,76.30
2017-12-15T05:21:59.421Z,76.30
2017-12-15T05:24:27.009Z,76.20
2017-12-15T05:26:55.334Z,76.20
2017-12-15T05:29:22.913Z,76.20
2017-12-15T05:31:50.500Z,76.40
2017-12-15T05:34:18.040Z,76.20
2017-12-15T05:36:45.629Z,76.50
2017-12-15T05:39:13.976Z,76.70
2017-12-15T05:41:41.563Z,76.70
2017-12-15T05:44:09.883Z,77.10
2017-12-15T05:46:37.470Z,77.00
2017-12-15T05:49:05.020Z,77.10
2017-12-15T05:51:32.564Z,77.10
2017-12-15T05:54:00.125Z,77.30
2017-12-15T05:56:27.681Z,77.20
2017-12-15T05:58:55.261Z,77.30
2017-12-15T06:01:22.822Z,77.30
2017-12-15T06:03:50.388Z,77.40
2017-12-15T06:06:17.928Z,77.40
2017-12-15T06:08:45.489Z,77.50
2017-12-15T06:11:13.060Z,77.60
2017-12-15T06:13:40.628Z,77.70
2017-12-15T06:16:08.190Z,78.00
2017-12-15T06:18:35.744Z,78.10
2017-12-15T06:21:03.321Z,78.20
2017-12-15T06:23:30.886Z,78.00
2017-12-15T06:25:58.458Z,78.00
2017-12-15T06:28:26.781Z,77.90
2017-12-15T06:30:54.357Z,77.90
2017-12-15T06:33:21.905Z,77.90
2017-12-15T06:35:49.476Z,78.00
2017-12-15T06:38:17.020Z,78.10
2017-12-15T06:40:44.583Z,78.40
2017-12-15T06:43:12.190Z,78.60
2017-12-15T06:45:40.506Z,78.70
2017-12-15T06:48:08.086Z,78.70
2017-12-15T06:50:35.641Z,78.70
2017-12-15T06:53:03.218Z,79.00
2017-12-15T06:55:30.858Z,79.20
2017-12-15T06:57:58.411Z,79.20
2017-12-15T07:00:25.987Z,79.00
2017-12-15T07:02:53.563Z,79.10
2017-12-15T07:05:21.116Z,79.00
2017-12-15T07:07:48.671Z,78.80
2017-12-15T07:10:16.250Z,79.00
2017-12-15T07:12:43.818Z,79.10
2017-12-15T07:15:12.158Z,79.00
2017-12-15T07:17:39.737Z,79.00
2017-12-15T07:20:07.296Z,78.50
2017-12-15T07:22:34.846Z,78.40
2017-12-15T07:25:02.431Z,78.40
2017-12-15T07:27:29.987Z,78.30
2017-12-15T07:29:57.570Z,78.40
2017-12-15T07:32:25.909Z,78.30
2017-12-15T07:34:53.455Z,78.30
2017-12-15T07:37:21.047Z,78.30
2017-12-15T07:39:49.364Z,78.10
2017-12-15T07:42:16.934Z,78.10
2017-12-15T07:44:44.503Z,77.70
2017-12-15T07:47:12.078Z,77.70
2017-12-15T07:49:39.633Z,77.70
2017-12-15T07:52:07.238Z,77.50
2017-12-15T07:54:35.580Z,76.70
2017-12-15T07:57:03.132Z,76.70
2017-12-15T07:59:30.720Z,76.70
2017-12-15T08:01:58.269Z,76.60
2017-12-15T08:04:25.849Z,77.40
2017-12-15T08:06:54.206Z,77.60
2017-12-15T08:09:21.792Z,77.50
2017-12-15T08:11:50.113Z,78.20
2017-12-15T08:14:17.693Z,78.20
2017-12-15T08:16:46.008Z,79.10
2017-12-15T08:19:14.308Z,79.40
2017-12-15T08:21:41.873Z,79.30
2017-12-15T08:24:09.427Z,79.60
2017-12-15T08:26:36.989Z,79.70
2017-12-15T08:29:04.536Z,79.80
2017-12-15T08:31:32.101Z,80.00
2017-12-15T08:34:00.410Z,79.60
2017-12-15T08:36:27.975Z,80.20
2017-12-15T08:38:55.520Z,79.70
2017-12-15T08:41:23.118Z,79.90
2017-12-15T08:43:50.670Z,79.90
2017-12-15T08:46:18.225Z,79.70
2017-12-15T08:48:45.787Z,79.80
2017-12-15T08:51:13.353Z,80.10
2017-12-15T08:53:40.917Z,79.90
2017-12-15T08:56:08.463Z,80.40
2017-12-15T08:58:36.020Z,80.10
2017-12-15T09:01:03.573Z,80.30
2017-12-15T09:03:31.917Z,81.90
2017-12-15T09:05:59.480Z,81.90
2017-12-15T09:08:27.024Z,82.10
2017-12-15T09:10:54.580Z,80.90
2017-12-15T09:13:22.139Z,79.80
2017-12-15T09:15:49.708Z,79.30
2017-12-15T09:18:17.277Z,79.40
2017-12-15T09:20:44.852Z,78.30
2017-12-15T09:23:12.414Z,76.20
2017-12-15T09:25:39.971Z,76.20
2017-12-15T09:28:07.512Z,76.20
2017-12-15T09:30:35.058Z,76.00
2017-12-15T09:33:02.623Z,76.10
2017-12-15T09:35:30.173Z,76.70
2017-12-15T09:37:58.512Z,82.50
2017-12-15T09:40:26.092Z,82.40
2017-12-15T09:42:55.188Z,78.40
2017-12-15T09:45:23.515Z,74.90
2017-12-15T09:47:51.076Z,74.90
2017-12-15T09:50:18.626Z,73.00
2017-12-15T09:52:50.478Z,75.60
2017-12-15T09:55:18.043Z,77.70
2017-12-15T09:57:45.611Z,74.30
2017-12-15T10:00:14.334Z,72.90
2017-12-15T10:02:42.687Z,72.30
2017-12-15T10:05:10.291Z,72.30
2017-12-15T10:07:38.600Z,68.60
2017-12-15T10:10:06.198Z,68.60
2017-12-15T10:12:33.748Z,67.70
2017-12-15T10:15:01.312Z,66.00
2017-12-15T10:17:28.887Z,68.00
2017-12-15T10:19:56.460Z,68.30
2017-12-15T10:22:24.022Z,68.80
2017-12-15T10:24:52.339Z,68.10
2017-12-15T10:27:19.901Z,68.10
2017-12-15T10:29:47.455Z,67.00
2017-12-15T10:32:15.040Z,68.00
2017-12-15T10:34:42.600Z,68.80
2017-12-15T10:37:10.174Z,69.80
2017-12-15T10:39:37.739Z,70.10
2017-12-15T10:42:06.105Z,72.20
2017-12-15T10:44:33.645Z,72.20
2017-12-15T10:47:01.205Z,72.70
2017-12-15T10:49:28.794Z,72.30
2017-12-15T10:51:56.335Z,71.30
2017-12-15T10:54:23.911Z,71.20
2017-12-15T10:56:51.472Z,72.50
2017-12-15T10:59:19.033Z,72.80
2017-12-15T11:01:47.383Z,72.90
2017-12-15T11:04:14.982Z,72.80
2017-12-15T11:06:42.534Z,73.20
2017-12-15T11:09:10.083Z,72.70
2017-12-15T11:11:37.646Z,72.70
2017-12-15T11:14:06.710Z,72.80
2017-12-15T11:16:34.272Z,72.10
2017-12-15T11:19:01.823Z,72.10
2017-12-15T11:21:29.385Z,71.60
2017-12-15T11:23:56.949Z,72.50
2017-12-15T11:26:24.517Z,71.50
2017-12-15T11:28:52.078Z,72.00
2017-12-15T11:31:19.652Z,72.30
2017-12-15T11:33:47.226Z,73.10
2017-12-15T11:36:14.772Z,73.30
2017-12-15T11:38:42.339Z,75.40
2017-12-15T11:41:09.906Z,75.80
2017-12-15T11:43:37.482Z,75.90
2017-12-15T11:46:05.119Z,75.80
2017-12-15T11:48:32.698Z,77.80
2017-12-15T11:51:00.250Z,76.10
2017-12-15T11:53:27.812Z,74.60
2017-12-15T11:55:55.364Z,72.60
2017-12-15T11:58:22.906Z,72.70
2017-12-15T12:00:50.479Z,70.40
2017-12-15T12:03:18.036Z,71.50
2017-12-15T12:05:45.610Z,72.20
2017-12-15T12:08:13.167Z,72.90
2017-12-15T12:10:40.738Z,70.50
2017-12-15T12:13:09.045Z,72.20
2017-12-15T12:15:37.170Z,72.20
2017-12-15T12:18:04.954Z,71.50
2017-12-15T12:20:32.492Z,69.20
2017-12-15T12:23:00.052Z,68.00
2017-12-15T12:25:27.599Z,69.20
2017-12-15T12:27:55.172Z,68.60
2017-12-15T12:30:22.727Z,68.20
2017-12-15T12:32:50.292Z,66.70
2017-12-15T12:35:17.831Z,70.60
2017-12-15T12:37:45.396Z,69.80
2017-12-15T12:40:12.943Z,69.40
2017-12-15T12:42:40.534Z,68.50
2017-12-15T12:45:08.102Z,68.60
2017-12-15T12:47:36.467Z,65.00
2017-12-15T12:50:04.062Z,64.90
2017-12-15T12:52:32.374Z,64.10
2017-12-15T12:54:59.947Z,63.50
2017-12-15T12:57:27.493Z,64.20
2017-12-15T12:59:55.057Z,66.00
2017-12-15T13:02:22.616Z,62.80
2017-12-15T13:04:50.188Z,63.80
2017-12-15T13:07:17.727Z,64.40
2017-12-15T13:09:45.275Z,63.20
2017-12-15T13:12:12.842Z,65.10
2017-12-15T13:14:40.561Z,64.60
2017-12-15T13:17:08.164Z,64.70
2017-12-15T13:19:35.729Z,65.60
2017-12-15T13:22:03.483Z,67.70
2017-12-15T13:24:31.260Z,68.20
2017-12-15T13:26:59.042Z,66.90
2017-12-15T13:29:26.617Z,69.40
2017-12-15T13:31:54.623Z,66.60
2017-12-15T13:34:22.314Z,69.00
2017-12-15T13:36:50.312Z,68.50
2017-12-15T13:39:18.843Z,64.20
2017-12-15T13:41:46.467Z,64.20
2017-12-15T13:44:14.060Z,62.50
2017-12-15T13:46:41.640Z,64.30
2017-12-15T13:49:09.772Z,66.00
2017-12-15T13:51:37.950Z,67.40
2017-12-15T13:54:05.639Z,68.90
2017-12-15T13:56:33.206Z,68.70
2017-12-15T13:59:00.832Z,67.10
2017-12-15T14:01:30.288Z,67.70
2017-12-15T14:03:58.662Z,67.50
2017-12-15T14:06:26.224Z,65.50
2017-12-15T14:08:53.776Z,63.10
2017-12-15T14:11:21.756Z,63.00
2017-12-15T14:13:49.408Z,62.30
2017-12-15T14:16:16.965Z,65.60
2017-12-15T14:18:44.506Z,62.00
2017-12-15T14:21:12.077Z,60.80
2017-12-15T14:23:39.650Z,61.30
2017-12-15T14:26:07.192Z,62.30
2017-12-15T14:28:34.756Z,63.80
2017-12-15T14:31:02.307Z,64.70
2017-12-15T14:33:29.888Z,65.00
2017-12-15T14:35:58.323Z,65.70
2017-12-15T14:38:25.982Z,67.00
2017-12-15T14:40:54.294Z,67.70
2017-12-15T14:43:21.870Z,67.60
2017-12-15T14:45:49.426Z,68.00
2017-12-15T14:48:16.971Z,69.10
2017-12-15T14:50:44.534Z,70.20
2017-12-15T14:53:12.084Z,70.50
2017-12-15T14:55:39.639Z,70.60
2017-12-15T14:58:07.198Z,69.50
2017-12-15T15:00:34.766Z,70.00
2017-12-15T15:03:02.311Z,70.00
2017-12-15T15:05:31.809Z,69.80
2017-12-15T15:08:00.141Z,69.10
2017-12-15T15:10:27.720Z,69.20
2017-12-15T15:12:55.752Z,68.80
2017-12-15T15:15:24.790Z,67.90
2017-12-15T15:17:53.690Z,67.30
2017-12-15T15:20:21.287Z,66.50
2017-12-15T15:22:49.629Z,65.60
2017-12-15T15:25:17.940Z,65.20
2017-12-15T15:27:45.500Z,65.20
2017-12-15T15:30:13.046Z,64.50
2017-12-15T15:32:41.234Z,66.00
2017-12-15T15:35:08.804Z,67.00
2017-12-15T15:37:36.357Z,67.70
2017-12-15T15:40:03.925Z,68.20
2017-12-15T15:42:31.465Z,67.80
2017-12-15T15:44:59.859Z,67.90
2017-12-15T15:47:27.414Z,68.00
2017-12-15T15:49:54.987Z,68.20
2017-12-15T15:52:22.547Z,69.80
2017-12-15T15:54:50.117Z,70.30
2017-12-15T15:57:17.664Z,71.30
2017-12-15T15:59:45.220Z,72.10
2017-12-15T16:02:12.802Z,72.10
2017-12-15T16:04:40.371Z,71.80
2017-12-15T16:07:07.945Z,71.30
2017-12-15T16:09:35.498Z,71.30
2017-12-15T16:12:03.090Z,71.90
2017-12-15T16:14:30.684Z,71.50
2017-12-15T16:16:58.263Z,71.40
2017-12-15T16:19:25.804Z,71.90
2017-12-15T16:21:53.374Z,72.00
2017-12-15T16:24:20.917Z,71.90
2017-12-15T16:26:48.768Z,72.10
2017-12-15T16:29:17.065Z,71.90
2017-12-15T16:31:44.871Z,71.90
2017-12-15T16:34:13.231Z,72.00
2017-12-15T16:36:40.790Z,71.90
2017-12-15T16:39:08.362Z,72.10
2017-12-15T16:41:35.905Z,72.10
2017-12-15T16:44:03.498Z,72.40
2017-12-15T16:46:31.813Z,72.70
2017-12-15T16:48:59.389Z,72.70
2017-12-15T16:51:26.966Z,72.90
2017-12-15T16:53:55.335Z,72.80
2017-12-15T16:56:22.897Z,72.90
2017-12-15T16:58:50.469Z,72.90
2017-12-15T17:01:18.028Z,73.20
2017-12-15T17:03:45.615Z,73.30
2017-12-15T17:06:13.192Z,73.10
2017-12-15T17:08:40.733Z,73.00
2017-12-15T17:11:09.095Z,72.60
2017-12-15T17:13:36.669Z,72.50
2017-12-15T17:16:04.976Z,72.40
2017-12-15T17:18:32.551Z,72.40
2017-12-15T17:21:00.101Z,72.90
2017-12-15T17:23:27.670Z,73.10
2017-12-15T17:25:55.234Z,73.10
2017-12-15T17:28:22.803Z,72.70
2017-12-15T17:30:50.344Z,72.50
2017-12-15T17:33:17.938Z,72.60
2017-12-15T17:35:45.492Z,72.50
2017-12-15T17:38:13.083Z,72.30
2017-12-15T17:40:41.407Z,72.50
2017-12-15T17:43:08.950Z,72.50
2017-12-15T17:45:36.566Z,72.60
2017-12-15T17:48:04.119Z,72.00
2017-12-15T17:50:31.678Z,72.30
2017-12-15T17:52:59.224Z,72.80
2017-12-15T17:55:26.786Z,72.80
2017-12-15T17:57:54.404Z,73.00
2017-12-15T18:00:21.988Z,73.90
2017-12-15T18:02:49.550Z,74.00
2017-12-15T18:05:17.128Z,74.40
2017-12-15T18:07:44.691Z,74.50
2017-12-15T18:10:12.240Z,74.80
2017-12-15T18:12:39.831Z,75.40
2017-12-15T18:15:07.393Z,74.90
2017-12-15T18:17:35.735Z,75.00
2017-12-15T18:20:03.297Z,75.00
2017-12-15T18:22:30.868Z,75.20
2017-12-15T18:24:58.426Z,74.10
2017-12-15T18:27:25.994Z,74.20
2017-12-15T18:29:53.553Z,74.30
2017-12-15T18:32:21.121Z,74.60
2017-12-15T18:34:48.684Z,74.30
2017-12-15T18:37:16.539Z,74.20
2017-12-15T18:39:44.119Z,74.00
2017-12-15T18:42:12.448Z,73.70
2017-12-15T18:44:40.019Z,73.70
2017-12-15T18:47:07.561Z,74.80
2017-12-15T18:49:35.158Z,74.70
2017-12-15T18:52:02.717Z,74.20
2017-12-15T18:54:30.264Z,74.20
2017-12-15T18:56:57.843Z,75.20
2017-12-15T18:59:25.404Z,75.60
2017-12-15T19:01:53.739Z,75.90
2017-12-15T19:04:21.340Z,75.90
2017-12-15T19:06:48.901Z,74.70
2017-12-15T19:09:16.455Z,75.20
2017-12-15T19:11:44.031Z,74.60
2017-12-15T19:14:12.358Z,74.70
2017-12-15T19:16:39.911Z,74.70
2017-12-15T19:19:07.472Z,74.20
2017-12-15T19:21:35.019Z,74.60
2017-12-15T19:24:02.609Z,74.40
2017-12-15T19:26:30.151Z,74.30
2017-12-15T19:28:57.787Z,74.40
2017-12-15T19:31:25.371Z,75.20
2017-12-15T19:33:52.946Z,74.70
2017-12-15T19:36:20.914Z,75.50
2017-12-15T19:38:49.261Z,76.10
2017-12-15T19:41:16.833Z,75.50
2017-12-15T19:43:44.490Z,76.00
2017-12-15T19:46:12.063Z,75.60
2017-12-15T19:48:40.521Z,76.40
2017-12-15T19:51:09.018Z,76.70
2017-12-15T19:53:36.575Z,76.40
2017-12-15T19:56:04.174Z,76.00
2017-12-15T19:58:31.725Z,75.50
2017-12-15T20:00:59.284Z,75.80
2017-12-15T20:03:26.845Z,76.00
2017-12-15T20:05:54.389Z,75.80
2017-12-15T20:08:21.948Z,75.30
2017-12-15T20:10:49.505Z,75.70
2017-12-15T20:13:17.077Z,75.50
2017-12-15T20:15:44.617Z,76.00
2017-12-15T20:18:12.186Z,76.10
2017-12-15T20:20:40.510Z,75.30
2017-12-15T20:23:08.836Z,74.10
2017-12-15T20:25:36.393Z,74.00
2017-12-15T20:28:03.952Z,74.20
2017-12-15T20:30:31.516Z,74.90
2017-12-15T20:32:59.084Z,75.30
2017-12-15T20:35:26.658Z,74.90
2017-12-15T20:37:54.210Z,75.50
2017-12-15T20:40:21.776Z,75.50
2017-12-15T20:42:49.319Z,75.80
2017-12-15T20:45:16.913Z,75.30
2017-12-15T20:47:44.467Z,75.10
2017-12-15T20:50:12.804Z,75.30
2017-12-15T20:52:40.373Z,75.30
2017-12-15T20:55:07.938Z,74.70
2017-12-15T20:57:35.519Z,74.50
2017-12-15T21:00:03.075Z,74.60
2017-12-15T21:02:30.647Z,74.80
2017-12-15T21:05:00.360Z,75.00
2017-12-15T21:07:30.174Z,75.20
2017-12-15T21:09:58.524Z,75.60
2017-12-15T21:12:26.088Z,75.60
2017-12-15T21:14:53.652Z,75.30
2017-12-15T21:17:21.207Z,75.40
2017-12-15T21:19:48.764Z,75.50
2017-12-15T21:22:16.355Z,75.20
2017-12-15T21:24:44.672Z,74.60
2017-12-15T21:27:12.209Z,74.50
2017-12-15T21:29:39.777Z,74.60
2017-12-15T21:32:07.330Z,75.00
2017-12-15T21:34:34.918Z,75.00
2017-12-15T21:37:02.457Z,75.20
2017-12-15T21:39:30.034Z,75.40
2017-12-15T21:41:57.594Z,75.60
2017-12-15T21:44:25.142Z,75.60
2017-12-15T21:46:52.739Z,75.80
2017-12-15T21:49:20.278Z,76.00
2017-12-15T21:51:47.849Z,76.00
2017-12-15T21:54:15.403Z,76.20
2017-12-15T21:56:42.970Z,76.20
2017-12-15T21:59:10.541Z,76.20
2017-12-15T22:01:38.104Z,76.40
2017-12-15T22:04:05.658Z,76.20
2017-12-15T22:06:33.199Z,76.00
2017-12-15T22:09:00.765Z,76.10
2017-12-15T22:11:28.318Z,76.60
2017-12-15T22:13:55.885Z,76.60
2017-12-15T22:16:23.431Z,76.60
2017-12-15T22:18:51.001Z,76.50
2017-12-15T22:21:18.563Z,76.60
2017-12-15T22:23:46.132Z,76.80
2017-12-15T22:26:13.693Z,76.80
2017-12-15T22:28:41.264Z,77.00
2017-12-15T22:31:08.833Z,76.90
2017-12-15T22:33:37.162Z,77.00
2017-12-15T22:36:04.729Z,77.00
2017-12-15T22:38:32.277Z,77.10
2017-12-15T22:40:59.874Z,77.00
2017-12-15T22:43:27.423Z,76.90
2017-12-15T22:45:55.000Z,77.00
2017-12-15T22:48:22.555Z,77.10
2017-12-15T22:50:50.110Z,77.20
2017-12-15T22:53:17.692Z,77.40
2017-12-15T22:55:46.034Z,77.30
2017-12-15T22:58:13.606Z,77.40
2017-12-15T23:00:41.166Z,77.20
2017-12-15T23:03:08.751Z,77.20
2017-12-15T23:05:37.073Z,77.20
2017-12-15T23:08:04.641Z,77.20
2017-12-15T23:10:32.202Z,77.00
2017-12-15T23:12:59.752Z,77.00
2017-12-15T23:15:27.318Z,76.90
2017-12-15T23:17:54.873Z,76.90
2017-12-15T23:20:22.458Z,77.00
2017-12-15T23:22:50.010Z,77.20
2017-12-15T23:25:17.610Z,77.20
2017-12-15T23:27:45.938Z,77.20
2017-12-15T23:30:13.506Z,77.20
2017-12-15T23:32:41.063Z,77.20
2017-12-15T23:35:10.262Z,77.20
2017-12-15T23:37:37.817Z,77.30
2017-12-15T23:40:05.382Z,77.40
2017-12-15T23:42:32.958Z,77.50
2017-12-15T23:45:00.529Z,77.40
2017-12-15T23:47:28.109Z,77.50
2017-12-15T23:49:56.428Z,77.30
2017-12-15T23:52:24.005Z,77.40
2017-12-15T23:55:03.486Z,77.30
2017-12-15T23:57:31.823Z,77.40
2017-12-15T23:59:59.397Z,77.40
